세미나안내

[2016 10 05] 정기세미나 3rd

Noble Metal Nanocrystals with Unprecedented Morphologies

MSE Graduate Students and Researchers

관리자 | 2016.10.04 09:04 | 조회 590


Reception: MSE Graduate Students and Researchers

Reference: MSE Professors

Subject: The 3rd Seminar - Fall Semester, 2016

 

 Date: 2016. 10. 05 , 17:00 ~ 18:15

 Place: Science Building, Room.202 Multimedia Room

 Title: Noble Metal Nanocrystals with Unprecedented Morphologies

 Speaker: Prof. Sang Woo Han(KAIST)

Host of a Seminar: Prof. Moon-Ho Jo

 

Speaker Language: ENGLISH

 

Abstract:

 

The morphology of metal nanocrystals explicitly determines their plasmonic, electronic, and catalytic characteristics. In particular, the catalytic activity and selectivity of nanocrystals can be tuned by controlling their shape, as the exposed surfaces of nanocrystals have distinct crystallographic planes that can determine their overall catalytic properties. However, the control of the size, shape, and composition of nanocrystals has been limited due to the complex kinetics in the reduction of metal precursors and to the difficulty in finding suitable stabilizing agents. Therefore, the development of an efficient synthesis route for the preparation of nanocrystals with a specific morphology is still a radical issue to study their properties and applications. Here, facile wet-chemical synthetic processes of noble metal nanocrystals with unprecedented morphologies and their applications in catalysis are reported.

 

 

Department of Materials Science and Engineering




172개(1/9페이지)
세미나안내
번호 제목 글쓴이 조회 날짜
172 [2017 09 13] 정기세미나 2nd 첨부파일 관리자 34 2017.09.18 09:17
171 [2017 09 13] 정기세미나 1st 첨부파일 관리자 74 2017.09.11 09:43
170 [2017 09 06] 신소재공학과 특별세미나 첨부파일 관리자 84 2017.09.06 09:15
169 [2017 08 30] 특별세미나 _Ph.D Byeongdu Lee (A 첨부파일 관리자 1012 2017.08.21 11:49
168 [2017 08 23] 특별세미나 _Prof. Hong Li (Insti 첨부파일 관리자 377 2017.08.21 11:49
167 [2017 08 11] 특별세미나 _Prof. Ki Soo Park (K 첨부파일 관리자 198 2017.08.07 11:40
166 [2017 07 24] 특별세미나 _Prof. YJ Kwon (Unive 첨부파일 관리자 1165 2017.07.18 09:27
165 [2017 07 07] 특별세미나 _Prof. Dong Hee Son(D 첨부파일 관리자 980 2017.07.06 13:26
164 [2017 07 06] 특별세미나 _Prof. Do Young Kim(O 첨부파일 관리자 454 2017.07.03 10:23
163 [2017 06 13] 특별세미나 강민철 (3D 프린팅 연구조합 상임이사 첨부파일 관리자 2233 2017.06.07 09:25
162 [2017 05 31] 정기세미나 11th (최경만 교수 정년퇴임 기념 첨부파일 관리자 378 2017.05.29 14:36
161 [2017 05 24] 정기세미나 10th 첨부파일 관리자 1668 2017.05.22 08:38
160 [2017 05 19] 특별세미나 임영목 (산업기술평가원 PD) 첨부파일 관리자 1016 2017.05.15 09:23
159 [2017 05 17] 정기세미나 9th 첨부파일 관리자 595 2017.05.15 09:23
158 [2017 05 10] 정기세미나 8th 첨부파일 관리자 286 2017.05.08 09:00
157 [2017 04 26] 정기세미나 7th 첨부파일 관리자 328 2017.04.17 10:24
156 [2017 04 24] 포스텍-POSCO기술연구소 연구분야 포럼 사진 첨부파일 관리자 347 2017.04.20 11:31
155 [2017 04 19] 정기세미나 6th 첨부파일 관리자 346 2017.04.17 10:24
154 [2017 04 05] 정기세미나 5th 첨부파일 관리자 379 2017.04.03 09:08
153 [2017 03 29] 정기세미나 4th 첨부파일 관리자 6998 2017.03.27 11:50